createdAt,value
2018-07-06T00:02:16.517Z,6.62
2018-07-06T00:05:01.606Z,6.65
2018-07-06T00:07:46.701Z,6.78
2018-07-06T00:10:31.838Z,6.60
2018-07-06T00:13:17.014Z,6.85
2018-07-06T00:16:02.165Z,6.08
2018-07-06T00:18:47.260Z,5.83
2018-07-06T00:21:32.310Z,6.60
2018-07-06T00:24:17.470Z,6.62
2018-07-06T00:27:02.534Z,6.60
2018-07-06T00:29:47.720Z,6.40
2018-07-06T00:32:32.823Z,6.72
2018-07-06T00:35:17.824Z,7.28
2018-07-06T00:38:02.962Z,7.67
2018-07-06T00:40:48.128Z,7.40
2018-07-06T00:43:33.286Z,7.72
2018-07-06T00:46:18.497Z,7.45
2018-07-06T00:49:03.576Z,7.30
2018-07-06T00:51:48.698Z,7.47
2018-07-06T00:54:33.663Z,7.37
2018-07-06T00:57:18.798Z,7.03
2018-07-06T01:00:03.912Z,7.10
2018-07-06T01:02:49.004Z,6.90
2018-07-06T01:05:33.988Z,6.70
2018-07-06T01:08:19.164Z,7.22
2018-07-06T01:11:04.382Z,7.03
2018-07-06T01:13:49.548Z,6.80
2018-07-06T01:16:34.767Z,6.67
2018-07-06T01:19:19.888Z,6.70
2018-07-06T01:22:05.066Z,6.67
2018-07-06T01:24:50.304Z,6.30
2018-07-06T01:27:35.645Z,6.80
2018-07-06T01:30:20.852Z,6.17
2018-07-06T01:33:11.010Z,6.07
2018-07-06T01:35:56.185Z,5.70
2018-07-06T01:38:41.280Z,5.40
2018-07-06T01:41:26.417Z,5.47
2018-07-06T01:44:11.334Z,5.93
2018-07-06T01:46:56.500Z,5.53
2018-07-06T01:49:41.567Z,5.33
2018-07-06T01:52:26.543Z,4.40
2018-07-06T01:55:11.649Z,5.50
2018-07-06T01:57:56.768Z,4.93
2018-07-06T02:00:41.909Z,4.97
2018-07-06T02:03:27.073Z,4.42
2018-07-06T02:06:12.141Z,4.67
2018-07-06T02:08:57.274Z,4.67
2018-07-06T02:11:42.362Z,3.97
2018-07-06T02:14:27.318Z,4.63
2018-07-06T02:17:12.344Z,4.00
2018-07-06T02:19:57.348Z,4.20
2018-07-06T02:22:42.442Z,4.63
2018-07-06T02:25:27.532Z,4.20
2018-07-06T02:28:12.620Z,4.30
2018-07-06T02:30:57.716Z,4.50
2018-07-06T02:33:42.882Z,4.13
2018-07-06T02:36:27.915Z,5.63
2018-07-06T02:39:13.242Z,4.10
2018-07-06T02:41:58.296Z,3.90
2018-07-06T02:44:43.572Z,4.03
2018-07-06T02:47:28.678Z,3.47
2018-07-06T02:50:13.740Z,3.80
2018-07-06T02:52:58.830Z,3.67
2018-07-06T02:55:43.887Z,4.50
2018-07-06T02:58:28.959Z,3.50
2018-07-06T03:01:13.982Z,3.53
2018-07-06T03:03:58.972Z,3.30
2018-07-06T03:06:43.938Z,3.43
2018-07-06T03:09:29.032Z,3.53
2018-07-06T03:12:14.372Z,3.17
2018-07-06T03:14:59.461Z,3.50
2018-07-06T03:17:44.668Z,3.30
2018-07-06T03:20:29.814Z,3.30
2018-07-06T03:23:14.787Z,3.60
2018-07-06T03:25:59.956Z,3.80
2018-07-06T03:28:45.199Z,3.50
2018-07-06T03:31:29.989Z,3.52
2018-07-06T03:34:15.106Z,3.50
2018-07-06T03:37:00.149Z,3.62
2018-07-06T03:39:45.166Z,3.50
2018-07-06T03:42:30.157Z,3.65
2018-07-06T03:45:15.206Z,4.05
2018-07-06T03:48:00.159Z,3.22
2018-07-06T03:50:45.174Z,4.05
2018-07-06T03:53:30.250Z,4.20
2018-07-06T03:56:15.319Z,3.62
2018-07-06T03:59:00.373Z,3.60
2018-07-06T04:01:45.650Z,3.80
2018-07-06T04:04:30.830Z,3.80
2018-07-06T04:07:16.002Z,3.67
2018-07-06T04:09:55.305Z,3.33
2018-07-06T04:12:40.420Z,3.35
2018-07-06T04:15:25.504Z,3.30
2018-07-06T04:18:10.627Z,3.90
2018-07-06T04:20:56.228Z,3.72
2018-07-06T04:23:41.304Z,3.10
2018-07-06T04:26:26.296Z,3.00
2018-07-06T04:29:11.529Z,2.83
2018-07-06T04:31:56.734Z,2.77
2018-07-06T04:34:41.854Z,2.70
2018-07-06T04:37:27.028Z,2.47
2018-07-06T04:40:12.246Z,7.10
2018-07-06T04:42:57.298Z,2.72
2018-07-06T04:45:42.296Z,2.80
2018-07-06T04:48:27.328Z,2.50
2018-07-06T04:51:12.401Z,2.47
2018-07-06T04:53:57.507Z,2.47
2018-07-06T04:56:42.559Z,2.52
2018-07-06T04:59:27.467Z,2.83
2018-07-06T05:02:12.498Z,2.65
2018-07-06T05:04:57.542Z,2.42
2018-07-06T05:07:42.617Z,2.35
2018-07-06T05:10:27.764Z,2.70
2018-07-06T05:13:12.870Z,3.02
2018-07-06T05:15:58.116Z,2.83
2018-07-06T05:18:43.159Z,2.90
2018-07-06T05:21:28.442Z,2.70
2018-07-06T05:24:13.474Z,3.00
2018-07-06T05:26:58.541Z,3.45
2018-07-06T05:29:37.656Z,2.90
2018-07-06T05:32:22.690Z,3.08
2018-07-06T05:35:07.620Z,3.35
2018-07-06T05:37:52.789Z,3.22
2018-07-06T05:40:37.861Z,3.20
2018-07-06T05:43:22.896Z,3.30
2018-07-06T05:46:08.015Z,3.12
2018-07-06T05:48:53.017Z,2.83
2018-07-06T05:51:38.141Z,3.50
2018-07-06T05:54:23.273Z,2.77
2018-07-06T05:57:08.482Z,2.98
2018-07-06T05:59:53.450Z,3.10
2018-07-06T06:02:38.496Z,3.70
2018-07-06T06:05:28.037Z,4.05
2018-07-06T06:07:54.346Z,3.52
2018-07-06T06:10:21.880Z,4.03
2018-07-06T06:12:49.404Z,4.80
2018-07-06T06:15:16.948Z,4.22
2018-07-06T06:17:44.462Z,5.05
2018-07-06T06:20:14.980Z,4.55
2018-07-06T06:22:42.530Z,4.47
2018-07-06T06:25:10.114Z,4.83
2018-07-06T06:27:37.620Z,4.60
2018-07-06T06:30:05.146Z,4.78
2018-07-06T06:32:33.024Z,5.55
2018-07-06T06:35:00.578Z,4.85
2018-07-06T06:37:28.128Z,4.45
2018-07-06T06:39:55.654Z,4.92
2018-07-06T06:42:23.170Z,5.40
2018-07-06T06:44:50.771Z,5.70
2018-07-06T06:47:18.239Z,5.70
2018-07-06T06:49:45.756Z,5.00
2018-07-06T06:52:13.933Z,5.20
2018-07-06T06:54:41.490Z,4.08
2018-07-06T06:57:09.013Z,4.80
2018-07-06T06:59:36.538Z,5.12
2018-07-06T07:02:04.067Z,4.55
2018-07-06T07:04:31.634Z,4.42
2018-07-06T07:06:59.194Z,4.17
2018-07-06T07:09:26.716Z,4.37
2018-07-06T07:11:54.248Z,3.92
2018-07-06T07:14:21.793Z,4.20
2018-07-06T07:16:49.313Z,4.15
2018-07-06T07:19:16.850Z,3.50
2018-07-06T07:21:44.376Z,3.40
2018-07-06T07:24:11.902Z,3.80
2018-07-06T07:26:39.430Z,3.40
2018-07-06T07:29:06.958Z,4.12
2018-07-06T07:31:34.490Z,3.75
2018-07-06T07:34:02.008Z,3.33
2018-07-06T07:36:32.854Z,3.62
2018-07-06T07:39:00.535Z,3.42
2018-07-06T07:41:28.383Z,3.77
2018-07-06T07:43:55.912Z,3.42
2018-07-06T07:46:23.451Z,3.58
2018-07-06T07:48:50.978Z,3.70
2018-07-06T07:52:04.693Z,3.77
2018-07-06T07:54:47.652Z,3.55
2018-07-06T07:57:17.381Z,2.80
2018-07-06T07:59:46.643Z,3.33
2018-07-06T08:02:14.411Z,3.10
2018-07-06T08:04:42.144Z,3.00
2018-07-06T08:07:11.759Z,2.80
2018-07-06T08:09:39.504Z,2.55
2018-07-06T08:12:07.085Z,2.75
2018-07-06T08:14:35.432Z,2.62
2018-07-06T08:17:04.488Z,2.80
2018-07-06T08:19:32.030Z,2.72
2018-07-06T08:21:59.576Z,2.80
2018-07-06T08:24:27.108Z,2.80
2018-07-06T08:26:54.654Z,3.10
2018-07-06T08:29:23.574Z,3.05
2018-07-06T08:31:51.176Z,3.10
2018-07-06T08:34:36.212Z,2.95
2018-07-06T08:37:51.287Z,2.95
2018-07-06T08:40:19.770Z,2.67
2018-07-06T08:42:48.532Z,2.87
2018-07-06T08:45:17.132Z,2.70
2018-07-06T08:47:45.126Z,2.40
2018-07-06T08:50:12.719Z,2.62
2018-07-06T08:52:41.367Z,2.20
2018-07-06T08:55:08.927Z,2.42
2018-07-06T08:57:41.225Z,2.70
2018-07-06T09:00:11.204Z,2.58
2018-07-06T09:02:38.817Z,2.70
2018-07-06T09:05:08.608Z,2.30
2018-07-06T09:07:53.029Z,2.52
2018-07-06T09:10:21.693Z,2.65
2018-07-06T09:12:49.236Z,2.40
2018-07-06T09:15:16.780Z,2.40
2018-07-06T09:17:44.323Z,2.50
2018-07-06T09:20:12.030Z,2.50
2018-07-06T09:22:39.442Z,2.62
2018-07-06T09:25:07.497Z,2.30
2018-07-06T09:27:35.836Z,2.45
2018-07-06T09:30:03.511Z,2.60
2018-07-06T09:32:30.943Z,2.45
2018-07-06T09:34:58.519Z,2.58
2018-07-06T09:37:26.071Z,2.50
2018-07-06T09:39:53.868Z,2.60
2018-07-06T09:42:24.150Z,2.40
2018-07-06T09:44:51.714Z,2.50
2018-07-06T09:47:19.262Z,2.77
2018-07-06T09:49:46.813Z,2.65
2018-07-06T09:52:14.378Z,2.58
2018-07-06T09:54:42.502Z,2.98
2018-07-06T09:57:10.051Z,2.70
2018-07-06T09:59:37.620Z,2.80
2018-07-06T10:02:05.245Z,2.80
2018-07-06T10:04:32.808Z,2.67
2018-07-06T10:07:00.362Z,2.80
2018-07-06T10:09:27.912Z,2.90
2018-07-06T10:11:55.460Z,2.50
2018-07-06T10:14:23.016Z,2.80
2018-07-06T10:16:50.572Z,2.52
2018-07-06T10:19:18.154Z,3.02
2018-07-06T10:21:45.738Z,2.90
2018-07-06T10:24:13.304Z,3.17
2018-07-06T10:26:40.840Z,3.10
2018-07-06T10:30:28.781Z,3.05
2018-07-06T10:32:56.804Z,3.00
2018-07-06T10:35:24.355Z,3.02
2018-07-06T10:37:52.012Z,3.02
2018-07-06T10:40:20.492Z,2.90
2018-07-06T10:42:48.132Z,3.05
2018-07-06T10:45:15.678Z,3.00
2018-07-06T10:47:43.266Z,2.95
2018-07-06T10:50:10.823Z,2.92
2018-07-06T10:52:38.376Z,2.83
2018-07-06T10:55:05.938Z,3.52
2018-07-06T10:57:33.495Z,2.90
2018-07-06T11:00:01.044Z,3.37
2018-07-06T11:02:28.606Z,3.00
2018-07-06T11:04:56.150Z,3.30
2018-07-06T11:07:23.697Z,2.90
2018-07-06T11:09:51.244Z,3.12
2018-07-06T11:12:18.800Z,3.10
2018-07-06T11:14:46.312Z,2.83
2018-07-06T11:17:13.822Z,2.90
2018-07-06T11:19:41.342Z,3.25
2018-07-06T11:22:08.869Z,3.42
2018-07-06T11:24:36.390Z,3.20
2018-07-06T11:27:03.982Z,2.52
2018-07-06T11:29:31.509Z,2.92
2018-07-06T11:31:59.012Z,2.92
2018-07-06T11:34:26.545Z,3.40
2018-07-06T11:36:54.082Z,3.10
2018-07-06T11:39:21.622Z,3.00
2018-07-06T11:41:49.164Z,3.20
2018-07-06T11:44:16.690Z,3.30
2018-07-06T11:46:44.265Z,3.52
2018-07-06T11:49:11.840Z,5.80
2018-07-06T11:51:39.368Z,3.20
2018-07-06T11:54:06.929Z,2.77
2018-07-06T11:56:34.471Z,3.10
2018-07-06T11:59:02.007Z,2.98
2018-07-06T12:01:29.538Z,2.85
2018-07-06T12:03:57.121Z,3.72
2018-07-06T12:06:24.710Z,3.70
2018-07-06T12:08:52.258Z,3.20
2018-07-06T12:11:19.788Z,3.22
2018-07-06T12:13:47.346Z,2.98
2018-07-06T12:16:14.874Z,3.50
2018-07-06T12:18:42.440Z,3.50
2018-07-06T12:21:09.993Z,3.47
2018-07-06T12:23:37.516Z,3.52
2018-07-06T12:26:05.054Z,3.22
2018-07-06T12:28:32.584Z,2.90
2018-07-06T12:31:00.091Z,3.35
2018-07-06T12:33:27.652Z,3.27
2018-07-06T12:35:55.691Z,3.12
2018-07-06T12:38:23.478Z,3.40
2018-07-06T12:40:55.982Z,3.50
2018-07-06T12:43:23.828Z,3.65
2018-07-06T12:46:17.829Z,3.30
2018-07-06T12:48:45.680Z,3.15
2018-07-06T12:51:17.901Z,3.40
2018-07-06T12:53:45.673Z,4.00
2018-07-06T12:56:13.503Z,3.40
2018-07-06T12:58:41.559Z,4.10
2018-07-06T13:04:19.562Z,3.58
2018-07-06T13:10:06.333Z,3.85
2018-07-06T13:12:34.161Z,3.75
2018-07-06T13:15:02.056Z,3.90
2018-07-06T13:17:29.869Z,4.62
2018-07-06T13:19:57.852Z,4.22
2018-07-06T13:22:25.651Z,4.97
2018-07-06T13:24:53.571Z,5.12
2018-07-06T13:27:21.452Z,4.92
2018-07-06T13:29:49.323Z,4.70
2018-07-06T13:32:17.117Z,5.55
2018-07-06T13:34:44.917Z,5.00
2018-07-06T13:37:12.639Z,5.60
2018-07-06T13:39:40.564Z,5.22
2018-07-06T13:42:08.351Z,5.45
2018-07-06T13:44:36.181Z,5.28
2018-07-06T13:47:04.375Z,5.72
2018-07-06T13:49:32.207Z,5.03
2018-07-06T13:52:01.072Z,5.12
2018-07-06T13:54:28.909Z,4.78
2018-07-06T13:56:57.371Z,4.25
2018-07-06T13:59:25.798Z,4.28
2018-07-06T14:01:54.015Z,4.12
2018-07-06T14:04:22.802Z,4.03
2018-07-06T14:06:50.601Z,4.12
2018-07-06T14:09:18.415Z,4.33
2018-07-06T14:11:46.241Z,3.92
2018-07-06T14:14:13.943Z,3.83
2018-07-06T14:16:42.120Z,3.62
2018-07-06T14:19:09.913Z,3.62
2018-07-06T14:21:37.748Z,3.50
2018-07-06T14:24:05.564Z,3.25
2018-07-06T14:26:34.389Z,3.70
2018-07-06T14:29:03.659Z,3.58
2018-07-06T14:31:31.456Z,3.65
2018-07-06T14:33:59.298Z,4.25
2018-07-06T14:36:27.087Z,3.80
2018-07-06T14:38:56.163Z,3.90
2018-07-06T14:41:23.964Z,3.70
2018-07-06T14:43:52.071Z,4.00
2018-07-06T14:46:19.901Z,4.33
2018-07-06T14:48:47.739Z,4.70
2018-07-06T14:51:15.461Z,4.55
2018-07-06T14:53:43.245Z,4.42
2018-07-06T14:56:11.646Z,5.00
2018-07-06T14:58:40.012Z,5.00
2018-07-06T15:01:08.227Z,5.40
2018-07-06T15:03:36.096Z,5.10
2018-07-06T15:06:03.945Z,4.97
2018-07-06T15:08:31.734Z,5.10
2018-07-06T15:10:59.765Z,4.42
2018-07-06T15:13:27.656Z,5.35
2018-07-06T15:15:55.392Z,4.95
2018-07-06T15:18:24.186Z,4.95
2018-07-06T15:20:51.947Z,5.70
2018-07-06T15:23:19.746Z,5.45
2018-07-06T15:25:47.623Z,6.30
2018-07-06T15:28:15.499Z,5.47
2018-07-06T15:30:43.354Z,5.35
2018-07-06T15:33:11.248Z,4.83
2018-07-06T15:35:39.027Z,5.15
2018-07-06T15:38:06.763Z,4.75
2018-07-06T15:40:34.555Z,4.92
2018-07-06T15:43:02.327Z,5.05
2018-07-06T15:45:30.153Z,5.40
2018-07-06T15:47:57.978Z,5.30
2018-07-06T15:50:25.705Z,5.55
2018-07-06T15:52:53.441Z,5.55
2018-07-06T15:55:21.162Z,5.67
2018-07-06T15:57:48.972Z,5.80
2018-07-06T16:00:16.772Z,5.97
2018-07-06T16:02:44.595Z,6.17
2018-07-06T16:05:12.334Z,5.40
2018-07-06T16:07:40.085Z,5.47
2018-07-06T16:10:07.855Z,5.45
2018-07-06T16:12:35.609Z,5.15
2018-07-06T16:15:03.493Z,4.90
2018-07-06T16:17:31.200Z,5.08
2018-07-06T16:19:58.995Z,4.87
2018-07-06T16:22:26.826Z,4.92
2018-07-06T16:24:54.797Z,4.90
2018-07-06T16:27:22.655Z,4.40
2018-07-06T16:29:50.418Z,4.70
2018-07-06T16:32:18.169Z,4.08
2018-07-06T16:34:46.039Z,4.30
2018-07-06T16:37:13.851Z,4.30
2018-07-06T16:39:41.610Z,4.00
2018-07-06T16:42:09.325Z,3.77
2018-07-06T16:44:37.072Z,3.87
2018-07-06T16:47:04.862Z,3.45
2018-07-06T16:49:32.667Z,3.47
2018-07-06T16:52:00.497Z,3.30
2018-07-06T16:54:28.327Z,3.40
2018-07-06T16:56:56.104Z,3.35
2018-07-06T16:59:23.937Z,2.80
2018-07-06T17:01:51.713Z,3.70
2018-07-06T17:04:19.533Z,3.05
2018-07-06T17:06:47.427Z,2.75
2018-07-06T17:09:15.252Z,2.52
2018-07-06T17:11:43.084Z,2.65
2018-07-06T17:14:10.855Z,3.05
2018-07-06T17:16:38.761Z,2.58
2018-07-06T17:19:06.546Z,2.65
2018-07-06T17:21:34.419Z,2.70
2018-07-06T17:24:02.255Z,2.72
2018-07-06T17:26:30.085Z,2.83
2018-07-06T17:28:57.999Z,2.60
2018-07-06T17:31:25.827Z,2.92
2018-07-06T17:33:53.543Z,2.72
2018-07-06T17:36:21.385Z,2.70
2018-07-06T17:38:49.257Z,2.55
2018-07-06T17:41:17.117Z,2.40
2018-07-06T17:43:44.884Z,2.80
2018-07-06T17:46:12.691Z,2.50
2018-07-06T17:48:40.620Z,2.50
2018-07-06T17:51:08.530Z,2.95
2018-07-06T17:53:36.317Z,2.62
2018-07-06T17:56:04.225Z,2.77
2018-07-06T17:58:32.076Z,2.65
2018-07-06T18:01:00.069Z,2.45
2018-07-06T18:03:27.943Z,2.27
2018-07-06T18:05:56.020Z,2.20
2018-07-06T18:08:23.879Z,2.35
2018-07-06T18:10:51.629Z,2.70
2018-07-06T18:16:25.911Z,2.50
2018-07-06T18:18:53.779Z,2.52
2018-07-06T18:21:21.619Z,3.37
2018-07-06T18:23:49.465Z,2.30
2018-07-06T18:26:17.263Z,2.55
2018-07-06T18:28:45.101Z,2.12
2018-07-06T18:31:12.950Z,2.50
2018-07-06T18:33:40.735Z,2.40
2018-07-06T18:36:08.491Z,2.22
2018-07-06T18:38:36.351Z,2.50
2018-07-06T18:41:04.092Z,2.47
2018-07-06T18:43:31.887Z,2.60
2018-07-06T18:45:59.739Z,2.30
2018-07-06T18:48:27.539Z,2.80
2018-07-06T18:50:55.442Z,2.70
2018-07-06T18:53:23.235Z,2.60
2018-07-06T18:55:51.108Z,2.42
2018-07-06T18:58:18.988Z,2.30
2018-07-06T19:00:46.818Z,2.60
2018-07-06T19:03:14.601Z,2.60
2018-07-06T19:05:42.729Z,2.72
2018-07-06T19:08:10.587Z,2.35
2018-07-06T19:10:38.429Z,2.80
2018-07-06T19:13:06.277Z,2.70
2018-07-06T19:15:34.122Z,2.60
2018-07-06T19:18:02.037Z,2.60
2018-07-06T19:20:29.905Z,2.60
2018-07-06T19:22:57.743Z,2.60
2018-07-06T19:25:25.533Z,2.80
2018-07-06T19:27:53.381Z,2.87
2018-07-06T19:30:21.181Z,2.62
2018-07-06T19:32:49.067Z,2.62
2018-07-06T19:35:16.955Z,2.95
2018-07-06T19:37:44.785Z,2.87
2018-07-06T19:40:12.719Z,2.77
2018-07-06T19:42:40.544Z,2.85
2018-07-06T19:45:08.757Z,3.00
2018-07-06T19:47:36.659Z,3.05
2018-07-06T19:50:04.551Z,3.40
2018-07-06T19:52:32.441Z,4.12
2018-07-06T19:55:00.225Z,3.98
2018-07-06T19:57:28.115Z,3.50
2018-07-06T20:00:03.954Z,3.90
2018-07-06T20:02:31.829Z,4.12
2018-07-06T20:04:59.671Z,4.28
2018-07-06T20:07:27.533Z,4.50
2018-07-06T20:09:56.390Z,4.20
2018-07-06T20:12:24.233Z,4.15
2018-07-06T20:18:02.459Z,4.60
2018-07-06T20:20:30.291Z,4.80
2018-07-06T20:22:59.149Z,4.60
2018-07-06T20:25:27.073Z,4.65
2018-07-06T20:27:54.947Z,4.72
2018-07-06T20:30:22.830Z,5.03
2018-07-06T20:32:50.749Z,4.83
2018-07-06T20:35:18.572Z,4.92
2018-07-06T20:37:48.549Z,4.85
2018-07-06T20:40:16.432Z,4.53
2018-07-06T20:42:44.533Z,4.65
2018-07-06T20:45:12.380Z,4.40
2018-07-06T20:48:00.647Z,4.55
2018-07-06T20:50:28.552Z,4.17
2018-07-06T20:53:15.401Z,4.28
2018-07-06T20:55:43.253Z,4.60
2018-07-06T20:58:11.154Z,4.53
2018-07-06T21:00:39.029Z,4.40
2018-07-06T21:03:21.861Z,4.22
2018-07-06T21:05:49.768Z,4.30
2018-07-06T21:08:21.323Z,4.60
2018-07-06T21:10:49.157Z,4.72
2018-07-06T21:13:17.155Z,4.78
2018-07-06T21:15:45.066Z,4.57
2018-07-06T21:18:12.965Z,4.70
2018-07-06T21:23:57.904Z,5.10
2018-07-06T21:26:25.740Z,5.07
2018-07-06T21:28:53.657Z,4.60
2018-07-06T21:31:21.451Z,5.07
2018-07-06T21:33:49.318Z,5.00
2018-07-06T21:36:17.186Z,4.80
2018-07-06T21:38:45.080Z,5.00
2018-07-06T21:41:14.885Z,5.00
2018-07-06T21:43:43.323Z,4.60
2018-07-06T21:46:11.133Z,5.50
2018-07-06T21:48:38.922Z,4.80
2018-07-06T21:51:06.853Z,4.53
2018-07-06T21:53:34.684Z,5.23
2018-07-06T21:56:04.755Z,4.73
2018-07-06T21:58:32.697Z,5.10
2018-07-06T22:01:11.895Z,4.60
2018-07-06T22:03:39.775Z,4.90
2018-07-06T22:06:07.605Z,5.00
2018-07-06T22:08:35.399Z,4.93
2018-07-06T22:11:05.288Z,4.93
2018-07-06T22:13:33.168Z,5.07
2018-07-06T22:16:01.110Z,4.83
2018-07-06T22:18:28.965Z,4.97
2018-07-06T22:20:56.845Z,5.00
2018-07-06T22:23:24.678Z,4.50
2018-07-06T22:25:54.661Z,4.83
2018-07-06T22:28:31.817Z,4.80
2018-07-06T22:30:59.820Z,4.70
2018-07-06T22:33:27.642Z,5.03
2018-07-06T22:35:55.543Z,5.60
2018-07-06T22:38:23.437Z,4.60
2018-07-06T22:40:51.262Z,4.93
2018-07-06T22:43:19.083Z,4.43
2018-07-06T22:45:46.924Z,4.80
2018-07-06T22:48:14.801Z,4.87
2018-07-06T22:50:42.740Z,4.87
2018-07-06T22:53:10.607Z,4.77
2018-07-06T22:55:38.469Z,4.67
2018-07-06T22:58:06.360Z,4.47
2018-07-06T23:00:34.173Z,4.63
2018-07-06T23:03:06.961Z,4.30
2018-07-06T23:05:34.802Z,4.50
2018-07-06T23:08:02.689Z,4.40
2018-07-06T23:10:30.503Z,4.83
2018-07-06T23:12:58.343Z,4.67
2018-07-06T23:15:26.205Z,4.50
2018-07-06T23:17:54.139Z,4.53
2018-07-06T23:20:22.029Z,4.60
2018-07-06T23:23:06.837Z,4.27
2018-07-06T23:25:35.973Z,4.20
2018-07-06T23:28:03.849Z,3.83
2018-07-06T23:30:31.787Z,4.30
2018-07-06T23:33:00.513Z,3.63
2018-07-06T23:35:28.383Z,3.47
2018-07-06T23:37:56.209Z,4.20
2018-07-06T23:40:24.078Z,3.60
2018-07-06T23:42:51.991Z,3.57
2018-07-06T23:45:20.232Z,3.53
2018-07-06T23:47:48.066Z,2.93
2018-07-06T23:50:16.390Z,3.70
2018-07-06T23:52:44.268Z,3.60
2018-07-06T23:55:12.621Z,3.40
2018-07-06T23:57:40.611Z,3.80
